Frederike Selmer — V7QY8 — position and weather

sailwx.info

Track history (hours):
 
Tides and Currents Weather Stations Pressure Air Temp Water Temp Dewpoint Dewpoint Depression Visibility Wind Speed Wind Dir Waves Ship Positions

Frederike Selmer

Last reported at 2018-Apr-09 12:56 UTC. Time now 2018-Apr-23 11:51 UTC.
Position N 23°25' E 118°02'.
Warning: this ship's position is 13 days out of date.

Length 188 m; draft 12.4 m.

Type: Cargo ship. MMSI: 538007012.

Date/timePositionNaut miles runAvg speedWind from/ knotsBaromVisibWave heightAir tempDewpointWater temp
2018-Apr-09 12:56N 23°25' E 118°02'1211.6
2018-Apr-09 11:55N 23°33' E 118°11'511.4
2018-Apr-09 11:30N 23°36' E 118°15'611.4
2018-Apr-09 11:00N 23°40' E 118°20'711.4
2018-Apr-09 10:25N 23°45' E 118°25'511.5
2018-Apr-09 10:00N 23°48' E 118°29'611.2
2018-Apr-09 09:29N 23°51' E 118°34'511.3
2018-Apr-09 09:00N 23°55' E 118°39'511.0
2018-Apr-09 08:30N 23°58' E 118°43'  
Track history (hours):
 
Tides and Currents Weather Stations Pressure Air Temp Water Temp Dewpoint Dewpoint Depression Visibility Wind Speed Wind Dir Waves Ship Positions

Frederike Selmer

Last reported at 2018-Apr-09 12:56 UTC. Time now 2018-Apr-23 11:51 UTC.
Position N 23°25' E 118°02'.
Warning: this ship's position is 13 days out of date.

Length 188 m; draft 12.4 m.

Type: Cargo ship. MMSI: 538007012.

Date/timePositionNaut miles runAvg speedWind from/ knotsBaromVisibWave heightAir tempDewpointWater temp
2018-Apr-09 12:56N 23°25' E 118°02'1211.6
2018-Apr-09 11:55N 23°33' E 118°11'511.4
2018-Apr-09 11:30N 23°36' E 118°15'611.4
2018-Apr-09 11:00N 23°40' E 118°20'711.4
2018-Apr-09 10:25N 23°45' E 118°25'511.5
2018-Apr-09 10:00N 23°48' E 118°29'611.2
2018-Apr-09 09:29N 23°51' E 118°34'511.3
2018-Apr-09 09:00N 23°55' E 118°39'511.0
2018-Apr-09 08:30N 23°58' E 118°43'  

Dump ship's entire track history